Terminal Aerodrome Forecast
Issued by NWS Grand Forks, ND

Home | Current Version | Previous Version | Text Only | Print | Product List | Glossary On
Versions: 1 2 3 4 5 6 7 8 9 10 11 12 13 14 15 16 17
000
FTUS43 KFGF 111430 AAA
TAFFAR
TAF AMD
KFAR 111430Z 1114/1212 34026G40KT P6SM OVC010
     FM111700 34023G34KT P6SM OVC015
     FM112200 34019KT P6SM SCT030
     FM120400 34008KT P6SM SCT250
     FM121100 22004KT P6SM BKN025=

USA.gov is the U.S. government's official web portal to all federal, state and local government web resources and services.